Time;durP1;ratioP1;P1;durP2;ratioP2;P2;SDS_P1;SDS_P2;PMS_P1;PMS_P2;Temp;Humidity;BMP_temperature;BMP_pressure;BME280_temperature;BME280_humidity;BME280_pressure;Samples;Min_cycle;Max_cycle;Signal;HPM_P1;HPM_P2
2021/11/28 00:01:07;;;;;;;5.50;5.00;;;2.70;63.10;;;;;;5053445;28;20553;-84
2021/11/28 00:03:33;;;;;;;5.23;4.83;;;2.70;62.60;;;;;;5052469;28;20419;-84
2021/11/28 00:06:02;;;;;;;5.20;4.70;;;2.70;60.00;;;;;;5051988;28;20927;-83
2021/11/28 00:11:02;;;;;;;5.33;4.93;;;2.80;60.40;;;;;;5053600;28;20417;-83
2021/11/28 00:15:55;;;;;;;5.87;5.27;;;2.90;59.30;;;;;;5053336;28;20456;-83
2021/11/28 00:18:21;;;;;;;5.53;5.10;;;2.90;58.00;;;;;;5052212;28;20424;-84
2021/11/28 00:20:48;;;;;;;5.00;4.37;;;2.90;56.40;;;;;;5051104;28;20462;-84
2021/11/28 00:23:14;;;;;;;5.57;5.10;;;2.90;57.80;;;;;;5051470;28;20949;-82
2021/11/28 00:25:40;;;;;;;5.23;4.53;;;2.90;56.60;;;;;;5051453;28;20414;-83
2021/11/28 00:28:06;;;;;;;5.00;4.43;;;3.00;57.70;;;;;;5051271;28;20827;-84
2021/11/28 00:30:32;;;;;;;4.33;3.93;;;3.00;57.20;;;;;;5051751;28;20427;-82
2021/11/28 00:33:00;;;;;;;4.63;4.17;;;3.00;56.10;;;;;;5051089;28;20426;-81
2021/11/28 00:35:26;;;;;;;5.20;3.23;;;3.00;55.40;;;;;;5051149;28;20422;-81
2021/11/28 00:37:51;;;;;;;3.77;3.47;;;3.10;55.50;;;;;;5051045;28;20414;-81
2021/11/28 00:40:17;;;;;;;4.33;3.47;;;3.10;56.10;;;;;;5051200;28;20449;-81
2021/11/28 00:42:43;;;;;;;4.53;4.13;;;3.10;54.60;;;;;;5050850;28;20172;-81
2021/11/28 00:45:09;;;;;;;4.33;3.93;;;3.10;54.70;;;;;;5049782;28;20176;-82
2021/11/28 00:47:34;;;;;;;4.10;3.70;;;3.10;55.10;;;;;;5050701;28;20186;-82
2021/11/28 00:52:35;;;;;;;4.13;3.83;;;3.10;55.00;;;;;;5051687;28;20732;-81
2021/11/28 00:55:03;;;;;;;4.50;4.10;;;3.10;56.20;;;;;;5050149;28;20433;-82
2021/11/28 00:57:29;;;;;;;4.73;4.23;;;3.10;56.50;;;;;;5050816;28;20557;-81
2021/11/28 00:59:55;;;;;;;5.23;4.73;;;3.00;56.10;;;;;;5050172;28;20549;-81
2021/11/28 01:02:21;;;;;;;3.70;3.40;;;3.00;56.60;;;;;;5049863;28;20200;-82
2021/11/28 01:04:47;;;;;;;4.93;3.73;;;3.10;56.50;;;;;;5050512;28;20429;-82
2021/11/28 01:07:14;;;;;;;3.72;3.42;;;3.10;54.50;;;;;;5052160;28;21001;-80
2021/11/28 01:09:40;;;;;;;3.30;3.00;;;3.10;55.00;;;;;;5049526;28;20200;-82
2021/11/28 01:12:07;;;;;;;8.93;4.13;;;3.20;54.80;;;;;;5049292;28;20422;-82
2021/11/28 01:14:33;;;;;;;3.92;3.10;;;3.20;54.50;;;;;;5051940;28;20406;-81
2021/11/28 01:16:59;;;;;;;4.07;3.17;;;3.30;53.70;;;;;;5049738;28;20690;-81
2021/11/28 01:19:25;;;;;;;2.87;2.67;;;3.20;54.30;;;;;;5049316;28;20619;-82
2021/11/28 01:22:04;;;;;;;4.00;3.60;;;3.20;54.00;;;;;;5049386;28;20463;-81
2021/11/28 01:24:30;;;;;;;3.33;3.13;;;3.30;55.50;;;;;;5049392;28;20914;-81
2021/11/28 01:26:56;;;;;;;4.37;2.63;;;3.30;55.20;;;;;;5049836;28;20406;-82
2021/11/28 01:29:22;;;;;;;2.77;2.57;;;3.30;56.20;;;;;;5049791;28;20423;-84
2021/11/28 01:31:48;;;;;;;3.70;2.90;;;3.30;56.30;;;;;;5051704;28;20834;-84
2021/11/28 01:34:14;;;;;;;3.65;2.85;;;3.30;56.50;;;;;;5048252;28;20504;-83
2021/11/28 01:36:40;;;;;;;2.80;2.60;;;3.30;55.70;;;;;;5049790;28;20263;-83
2021/11/28 01:39:08;;;;;;;2.90;2.70;;;3.30;54.60;;;;;;5049293;28;20211;-84
2021/11/28 01:41:34;;;;;;;4.77;3.23;;;3.30;55.40;;;;;;5049475;28;20922;-83
2021/11/28 01:44:00;;;;;;;2.87;2.67;;;3.20;55.20;;;;;;5049885;28;20431;-84
2021/11/28 01:46:27;;;;;;;4.93;3.77;;;3.20;56.30;;;;;;5050962;28;20505;-84
2021/11/28 01:48:53;;;;;;;3.23;2.93;;;3.30;56.40;;;;;;5049594;28;20203;-84
2021/11/28 01:51:19;;;;;;;4.70;3.17;;;3.30;56.20;;;;;;5049324;28;20414;-84
2021/11/28 01:53:47;;;;;;;3.07;2.77;;;3.20;55.40;;;;;;5048610;28;20437;-84
2021/11/28 01:56:13;;;;;;;3.50;3.20;;;3.30;56.20;;;;;;5049643;28;20435;-83
2021/11/28 01:58:39;;;;;;;4.43;3.10;;;3.20;56.20;;;;;;5049826;28;20881;-84
2021/11/28 02:01:09;;;;;;;3.47;3.17;;;3.20;56.60;;;;;;5050100;28;20216;-84
2021/11/28 02:03:38;;;;;;;3.80;3.20;;;3.20;56.50;;;;;;5049178;28;20956;-83
2021/11/28 02:06:05;;;;;;;3.80;3.50;;;3.30;56.80;;;;;;5049131;28;20484;-83
2021/11/28 02:08:31;;;;;;;3.70;3.40;;;3.20;56.60;;;;;;5049837;28;20421;-84
2021/11/28 02:10:57;;;;;;;3.40;3.10;;;3.30;56.30;;;;;;5049139;28;20733;-84
2021/11/28 02:13:23;;;;;;;3.30;3.00;;;3.20;56.90;;;;;;5049389;28;20839;-84
2021/11/28 02:15:50;;;;;;;3.23;2.93;;;3.20;56.50;;;;;;5049301;28;20203;-86
2021/11/28 02:18:16;;;;;;;3.47;3.17;;;3.20;56.20;;;;;;5048700;28;20419;-83
2021/11/28 02:20:49;;;;;;;3.63;3.33;;;3.10;56.20;;;;;;5047883;28;20454;-83
2021/11/28 02:23:15;;;;;;;3.40;3.10;;;3.20;56.00;;;;;;5049635;28;20214;-83
2021/11/28 02:25:42;;;;;;;3.67;3.37;;;3.10;55.90;;;;;;5048842;28;20411;-82
2021/11/28 02:28:08;;;;;;;3.20;2.87;;;3.20;55.60;;;;;;5049150;28;20467;-85
2021/11/28 02:30:34;;;;;;;3.77;3.37;;;3.20;56.20;;;;;;5050180;28;20426;-85
2021/11/28 02:33:00;;;;;;;3.40;3.10;;;3.20;56.20;;;;;;5051412;28;20421;-84
2021/11/28 02:35:28;;;;;;;4.03;3.37;;;3.20;56.20;;;;;;5052572;28;20182;-84
2021/11/28 02:37:54;;;;;;;4.47;3.70;;;3.20;56.00;;;;;;5052486;28;20662;-82
2021/11/28 02:40:23;;;;;;;4.87;3.20;;;3.20;56.30;;;;;;5049495;28;20490;-81
2021/11/28 02:42:51;;;;;;;3.80;3.40;;;3.20;57.10;;;;;;5050396;28;20191;-82
2021/11/28 02:45:19;;;;;;;3.57;3.37;;;3.20;57.10;;;;;;5048764;28;20414;-82
2021/11/28 02:47:45;;;;;;;3.93;3.63;;;3.20;57.00;;;;;;5049036;28;21156;-83
2021/11/28 02:50:13;;;;;;;4.53;3.20;;;3.20;57.40;;;;;;5048222;28;20417;-83
2021/11/28 02:52:39;;;;;;;3.47;3.20;;;3.20;56.30;;;;;;5048356;28;20444;-83
2021/11/28 02:55:06;;;;;;;3.90;3.37;;;3.20;56.20;;;;;;5048687;28;20414;-83
2021/11/28 02:57:32;;;;;;;7.77;3.60;;;3.20;56.20;;;;;;5050546;28;20402;-82
2021/11/28 02:59:58;;;;;;;3.87;3.57;;;3.20;56.00;;;;;;5048488;28;20992;-85
2021/11/28 03:02:24;;;;;;;4.03;3.67;;;3.20;55.10;;;;;;5048870;28;20621;-87
2021/11/28 03:04:50;;;;;;;3.73;3.40;;;3.30;55.50;;;;;;5048943;28;20179;-85
2021/11/28 03:07:17;;;;;;;3.50;3.30;;;3.20;56.20;;;;;;5048918;28;20917;-85
2021/11/28 03:09:44;;;;;;;4.43;3.60;;;3.20;56.40;;;;;;5049204;28;20430;-84
2021/11/28 03:12:10;;;;;;;4.87;4.13;;;3.20;57.20;;;;;;5048480;28;20557;-84
2021/11/28 03:14:36;;;;;;;3.97;3.67;;;3.20;56.20;;;;;;5048386;28;20895;-82
2021/11/28 03:17:02;;;;;;;4.40;4.00;;;3.20;56.20;;;;;;5049069;28;20552;-83
2021/11/28 03:19:27;;;;;;;4.20;3.90;;;3.20;56.20;;;;;;5051387;28;20195;-83
2021/11/28 03:21:53;;;;;;;4.30;3.87;;;3.20;57.10;;;;;;5052541;28;20422;-83
2021/11/28 03:24:18;;;;;;;6.80;4.10;;;3.20;56.20;;;;;;5051414;28;20171;-82
2021/11/28 03:26:45;;;;;;;4.40;4.00;;;3.20;56.20;;;;;;5052318;28;20263;-82
2021/11/28 03:29:20;;;;;;;3.53;3.20;;;3.20;56.20;;;;;;5051776;28;20661;-85
2021/11/28 03:31:50;;;;;;;3.80;3.50;;;3.20;56.30;;;;;;5052237;28;20438;-86
2021/11/28 03:34:17;;;;;;;3.70;3.40;;;3.20;56.30;;;;;;5051554;28;20418;-85
2021/11/28 03:36:53;;;;;;;3.83;3.53;;;3.30;56.30;;;;;;5051680;28;20238;-85
2021/11/28 03:39:24;;;;;;;4.50;4.10;;;3.30;56.30;;;;;;5052405;28;20976;-85
2021/11/28 03:41:54;;;;;;;5.00;3.43;;;3.30;56.20;;;;;;5052850;28;20439;-85
2021/11/28 03:44:19;;;;;;;3.53;3.23;;;3.30;56.40;;;;;;5052287;28;20817;-86
2021/11/28 03:46:45;;;;;;;4.57;3.70;;;3.30;56.90;;;;;;5052736;28;20406;-85
2021/11/28 03:49:11;;;;;;;5.27;4.40;;;3.40;56.50;;;;;;5052213;28;20509;-84
2021/11/28 03:51:37;;;;;;;5.30;3.50;;;3.40;56.50;;;;;;5051660;28;20426;-85
2021/11/28 03:54:03;;;;;;;5.57;3.57;;;3.30;56.40;;;;;;5051804;28;20426;-87
2021/11/28 03:56:30;;;;;;;4.50;3.50;;;3.30;56.30;;;;;;5052237;28;20176;-83
2021/11/28 03:58:56;;;;;;;3.70;3.40;;;3.30;55.80;;;;;;5052310;28;20403;-84
2021/11/28 04:01:22;;;;;;;3.50;3.17;;;3.30;56.20;;;;;;5051201;28;20421;-82
2021/11/28 04:03:48;;;;;;;4.00;2.83;;;3.30;56.30;;;;;;5051438;28;20176;-83
2021/11/28 04:06:14;;;;;;;3.63;2.53;;;3.30;56.40;;;;;;5051827;28;20417;-83
2021/11/28 04:08:41;;;;;;;3.67;3.37;;;3.40;55.80;;;;;;5051422;28;20427;-83
2021/11/28 04:11:07;;;;;;;3.70;3.37;;;3.40;55.20;;;;;;5051162;28;20458;-82
2021/11/28 04:13:33;;;;;;;4.53;3.20;;;3.40;56.40;;;;;;5050894;28;20427;-86
2021/11/28 04:15:59;;;;;;;4.17;3.00;;;3.30;56.40;;;;;;5051020;28;20517;-85
2021/11/28 04:18:24;;;;;;;3.27;3.03;;;3.30;56.40;;;;;;5051055;28;20225;-85
2021/11/28 04:20:50;;;;;;;3.57;2.80;;;3.40;55.90;;;;;;5050640;28;20249;-85
2021/11/28 04:23:17;;;;;;;3.83;3.10;;;3.30;55.60;;;;;;5050980;28;20175;-83
2021/11/28 04:25:42;;;;;;;3.97;2.83;;;3.30;56.30;;;;;;5049661;28;20411;-82
2021/11/28 04:28:08;;;;;;;3.63;3.20;;;3.30;56.40;;;;;;5050142;28;20464;-83
2021/11/28 04:30:34;;;;;;;4.10;2.73;;;3.30;56.10;;;;;;5049484;28;20406;-83
2021/11/28 04:33:00;;;;;;;2.83;2.53;;;3.30;56.30;;;;;;5050671;28;20263;-84
2021/11/28 04:35:26;;;;;;;3.23;2.93;;;3.40;55.70;;;;;;5049243;28;20538;-83
2021/11/28 04:37:52;;;;;;;2.97;2.67;;;3.30;55.60;;;;;;5049239;28;20779;-83
2021/11/28 04:40:18;;;;;;;2.57;2.37;;;3.30;57.00;;;;;;5049095;28;20454;-83
2021/11/28 04:42:44;;;;;;;3.50;2.97;;;3.30;56.00;;;;;;5050235;28;20621;-83
2021/11/28 04:45:11;;;;;;;3.10;2.80;;;3.30;56.40;;;;;;5049949;28;20509;-82
2021/11/28 04:47:37;;;;;;;3.47;3.17;;;3.30;55.10;;;;;;5050338;28;20756;-82
2021/11/28 04:50:05;;;;;;;3.50;3.10;;;3.40;55.60;;;;;;5049767;28;20441;-82
2021/11/28 04:52:31;;;;;;;2.90;2.43;;;3.40;54.50;;;;;;5049815;28;20435;-82
2021/11/28 04:54:57;;;;;;;3.00;2.80;;;3.40;54.90;;;;;;5050578;28;20488;-84
2021/11/28 04:57:23;;;;;;;4.50;2.63;;;3.40;55.10;;;;;;5051389;28;20180;-85
2021/11/28 04:59:49;;;;;;;3.87;3.47;;;3.40;55.80;;;;;;5049590;28;20858;-85
2021/11/28 05:02:15;;;;;;;3.37;3.07;;;3.40;55.60;;;;;;5050167;28;20555;-86
2021/11/28 05:04:41;;;;;;;3.80;2.87;;;3.40;56.10;;;;;;5049644;28;20411;-85
2021/11/28 05:07:06;;;;;;;3.00;2.70;;;3.40;55.50;;;;;;5049887;28;20424;-85
2021/11/28 05:09:32;;;;;;;3.63;2.90;;;3.40;56.10;;;;;;5050170;28;20176;-85
2021/11/28 05:11:58;;;;;;;3.30;2.80;;;3.40;55.90;;;;;;5050163;28;20225;-85
2021/11/28 05:14:24;;;;;;;3.90;2.30;;;3.40;55.90;;;;;;5050463;28;20419;-85
2021/11/28 05:16:50;;;;;;;4.77;2.60;;;3.40;56.00;;;;;;5050047;28;20447;-86
2021/11/28 05:19:16;;;;;;;4.67;2.80;;;3.40;56.40;;;;;;5050731;28;20180;-86
2021/11/28 05:21:43;;;;;;;2.90;2.67;;;3.40;56.50;;;;;;5051738;28;20172;-86
2021/11/28 05:24:08;;;;;;;2.60;2.40;;;3.30;56.10;;;;;;5051623;28;20456;-85
2021/11/28 05:26:34;;;;;;;3.17;2.60;;;3.30;56.40;;;;;;5052598;28;20506;-84
2021/11/28 05:29:00;;;;;;;3.07;2.70;;;3.30;55.90;;;;;;5052785;28;20747;-85
2021/11/28 05:31:25;;;;;;;3.13;2.63;;;3.30;56.40;;;;;;5051736;28;20658;-85
2021/11/28 05:33:51;;;;;;;3.53;2.50;;;3.30;55.70;;;;;;5050868;28;20422;-85
2021/11/28 05:36:17;;;;;;;2.97;2.23;;;3.30;56.30;;;;;;5051470;28;20410;-85
2021/11/28 05:38:45;;;;;;;2.63;2.40;;;3.30;56.40;;;;;;5051455;28;20505;-85
2021/11/28 05:41:11;;;;;;;2.33;2.23;;;3.30;57.00;;;;;;5050902;28;20492;-82
2021/11/28 05:43:39;;;;;;;3.00;2.70;;;3.30;56.70;;;;;;5050618;28;20410;-83
2021/11/28 05:46:05;;;;;;;2.33;2.20;;;3.30;55.90;;;;;;5051006;28;20419;-83
2021/11/28 05:48:32;;;;;;;2.70;2.50;;;3.20;56.00;;;;;;5051536;28;20493;-83
2021/11/28 05:50:58;;;;;;;3.50;3.03;;;3.20;56.30;;;;;;5050861;28;20423;-81
2021/11/28 05:53:24;;;;;;;2.50;2.30;;;3.30;56.30;;;;;;5051082;28;20799;-82
2021/11/28 05:55:50;;;;;;;3.53;2.80;;;3.30;55.80;;;;;;5051562;28;20505;-83
2021/11/28 05:58:16;;;;;;;3.07;2.80;;;3.20;56.30;;;;;;5051666;28;20842;-84
2021/11/28 06:00:42;;;;;;;2.80;2.13;;;3.30;56.30;;;;;;5051150;28;20508;-82
2021/11/28 06:03:08;;;;;;;3.07;2.70;;;3.30;56.40;;;;;;5051884;28;20182;-83
2021/11/28 06:05:33;;;;;;;4.33;2.53;;;3.30;55.10;;;;;;5051198;28;20898;-83
2021/11/28 06:07:59;;;;;;;3.80;2.87;;;3.20;54.90;;;;;;5051101;28;20448;-86
2021/11/28 06:10:25;;;;;;;2.73;2.50;;;3.20;54.80;;;;;;5052003;28;20259;-86
2021/11/28 06:12:50;;;;;;;2.97;2.50;;;3.20;55.70;;;;;;5051936;28;20179;-84
2021/11/28 06:15:16;;;;;;;3.03;2.57;;;3.30;56.30;;;;;;5051332;28;20660;-84
2021/11/28 06:17:42;;;;;;;2.70;1.97;;;3.20;55.80;;;;;;5051811;28;20381;-85
2021/11/28 06:20:08;;;;;;;2.87;2.67;;;3.30;56.30;;;;;;5051583;28;20196;-83
2021/11/28 06:22:35;;;;;;;3.33;3.03;;;3.20;56.60;;;;;;5051445;28;20643;-82
2021/11/28 06:25:02;;;;;;;2.70;2.43;;;3.20;56.20;;;;;;5050744;28;20417;-83
2021/11/28 06:27:27;;;;;;;2.97;2.77;;;3.30;56.40;;;;;;5051517;28;20762;-81
2021/11/28 06:29:53;;;;;;;3.30;2.73;;;3.30;56.40;;;;;;5050632;28;20514;-81
2021/11/28 06:32:19;;;;;;;4.17;3.00;;;3.30;56.40;;;;;;5051032;28;20179;-81
2021/11/28 06:34:45;;;;;;;2.60;2.40;;;3.30;56.40;;;;;;5051077;28;20180;-80
2021/11/28 06:37:10;;;;;;;3.20;3.00;;;3.30;56.40;;;;;;5051193;28;20251;-81
2021/11/28 06:39:36;;;;;;;2.60;2.30;;;3.30;56.20;;;;;;5050986;28;20462;-81
2021/11/28 06:42:02;;;;;;;2.63;2.43;;;3.30;55.60;;;;;;5051558;28;20270;-82
2021/11/28 06:44:28;;;;;;;2.53;2.33;;;3.30;55.80;;;;;;5051570;28;20176;-82
2021/11/28 06:46:54;;;;;;;3.03;2.77;;;3.30;56.30;;;;;;5051306;28;20456;-83
2021/11/28 06:49:19;;;;;;;4.10;2.50;;;3.40;56.30;;;;;;5050791;28;20172;-83
2021/11/28 06:51:45;;;;;;;2.40;2.20;;;3.30;55.10;;;;;;5051643;28;20291;-82
2021/11/28 06:54:11;;;;;;;4.30;2.60;;;3.40;56.40;;;;;;5055435;28;20160;-82
2021/11/28 06:56:37;;;;;;;2.60;2.40;;;3.30;55.10;;;;;;5055347;28;20632;-82
2021/11/28 06:59:03;;;;;;;3.97;2.90;;;3.30;55.60;;;;;;5055231;28;20429;-83
2021/11/28 07:01:28;;;;;;;2.50;2.30;;;3.30;55.10;;;;;;5055459;28;20418;-83
2021/11/28 07:03:54;;;;;;;5.67;3.60;;;3.30;54.60;;;;;;5043268;28;20233;-82
2021/11/28 07:06:20;;;;;;;3.43;3.20;;;3.40;55.50;;;;;;5049941;28;20187;-81
2021/11/28 07:08:45;;;;;;;2.87;2.67;;;3.40;56.40;;;;;;5054966;28;20184;-82
2021/11/28 07:11:11;;;;;;;2.80;2.60;;;3.40;56.50;;;;;;5056612;28;20172;-81
2021/11/28 07:13:37;;;;;;;4.20;2.70;;;3.40;56.70;;;;;;5054014;28;20200;-81
2021/11/28 07:16:02;;;;;;;3.90;2.70;;;3.40;55.80;;;;;;5046667;28;20186;-83
2021/11/28 07:18:28;;;;;;;4.20;3.80;;;3.50;56.30;;;;;;5052678;28;20179;-83
2021/11/28 07:20:54;;;;;;;4.13;3.73;;;3.40;56.30;;;;;;5054338;28;20192;-83
2021/11/28 07:23:20;;;;;;;4.60;3.30;;;3.40;55.60;;;;;;5055619;28;20203;-83
2021/11/28 07:25:45;;;;;;;2.80;2.60;;;3.40;54.80;;;;;;5054667;28;20416;-84
2021/11/28 07:28:11;;;;;;;2.83;2.60;;;3.40;55.40;;;;;;5054792;28;20211;-82
2021/11/28 07:30:37;;;;;;;3.27;3.03;;;3.40;55.90;;;;;;5053230;28;20184;-82
2021/11/28 07:33:03;;;;;;;2.80;2.43;;;3.40;55.80;;;;;;5053895;28;20180;-81
2021/11/28 07:35:28;;;;;;;3.03;2.73;;;3.40;54.70;;;;;;5054600;28;20426;-81
2021/11/28 07:37:54;;;;;;;3.93;2.47;;;3.30;55.30;;;;;;5054740;28;20218;-81
2021/11/28 07:40:19;;;;;;;2.50;2.40;;;3.40;55.60;;;;;;5054233;28;20206;-82
2021/11/28 07:42:45;;;;;;;2.57;2.37;;;3.40;55.50;;;;;;5054691;28;20172;-81
2021/11/28 07:45:11;;;;;;;2.80;2.60;;;3.40;56.00;;;;;;5053022;28;20176;-80
2021/11/28 07:47:37;;;;;;;2.93;2.63;;;3.50;55.40;;;;;;5053230;28;20280;-80
2021/11/28 07:50:05;;;;;;;5.33;2.90;;;3.70;56.50;;;;;;5053388;28;20179;-79
2021/11/28 07:52:31;;;;;;;2.53;2.33;;;3.80;55.80;;;;;;5053485;28;20856;-80
2021/11/28 07:54:56;;;;;;;3.40;3.10;;;3.90;54.80;;;;;;5053649;28;20564;-80
2021/11/28 07:57:22;;;;;;;2.83;2.63;;;3.90;54.70;;;;;;5053829;28;20325;-81
2021/11/28 07:59:48;;;;;;;2.10;2.00;;;3.80;53.50;;;;;;5053432;28;20294;-82
2021/11/28 08:02:16;;;;;;;4.37;3.13;;;3.90;54.10;;;;;;5053693;28;20186;-82
2021/11/28 08:04:42;;;;;;;3.90;3.50;;;4.00;53.90;;;;;;5052702;28;20222;-82
2021/11/28 08:07:08;;;;;;;3.57;3.00;;;3.90;52.80;;;;;;5053797;28;20803;-82
2021/11/28 08:09:34;;;;;;;8.50;3.20;;;3.90;54.20;;;;;;5053579;28;20427;-83
2021/11/28 08:12:00;;;;;;;4.67;3.67;;;3.90;53.70;;;;;;5054438;28;20183;-81
2021/11/28 08:14:26;;;;;;;3.30;3.00;;;4.00;54.40;;;;;;5053601;28;20190;-80
2021/11/28 08:16:52;;;;;;;3.33;3.03;;;4.10;54.40;;;;;;5052571;28;20490;-80
2021/11/28 08:19:17;;;;;;;5.43;3.87;;;4.10;53.90;;;;;;5052149;28;20222;-81
2021/11/28 08:21:43;;;;;;;3.27;3.00;;;4.00;53.50;;;;;;5053577;28;20187;-81
2021/11/28 08:24:09;;;;;;;3.27;3.07;;;4.00;53.00;;;;;;5052715;28;20196;-81
2021/11/28 08:26:36;;;;;;;4.20;3.67;;;4.00;52.50;;;;;;5053321;28;20178;-82
2021/11/28 08:29:03;;;;;;;6.07;3.53;;;4.10;53.10;;;;;;5053042;28;20217;-81
2021/11/28 08:31:29;;;;;;;4.77;3.40;;;4.10;52.30;;;;;;5039318;28;20431;-81
2021/11/28 08:33:54;;;;;;;3.20;2.90;;;4.10;52.90;;;;;;5033236;28;21035;-85
2021/11/28 08:36:20;;;;;;;4.97;3.67;;;4.10;52.10;;;;;;5033169;28;20180;-84
2021/11/28 08:38:51;;;;;;;3.37;3.07;;;4.00;52.50;;;;;;5034166;28;20173;-83
2021/11/28 08:41:21;;;;;;;5.10;3.87;;;4.00;51.60;;;;;;5046199;28;20515;-82
2021/11/28 08:43:47;;;;;;;3.47;3.17;;;4.10;53.90;;;;;;5052387;28;20415;-82
2021/11/28 08:46:13;;;;;;;3.70;3.40;;;4.10;53.60;;;;;;5052352;28;20411;-83
2021/11/28 08:48:40;;;;;;;4.23;3.60;;;4.10;51.90;;;;;;5052772;28;20403;-84
2021/11/28 08:51:07;;;;;;;4.20;3.40;;;4.00;52.50;;;;;;5052381;28;20176;-84
2021/11/28 08:53:32;;;;;;;3.07;2.87;;;4.10;53.00;;;;;;5052659;28;20525;-84
2021/11/28 08:55:58;;;;;;;3.00;2.73;;;4.10;53.00;;;;;;5053800;28;20501;-84
2021/11/28 08:58:24;;;;;;;3.33;2.87;;;4.10;52.80;;;;;;5052259;28;20176;-83
2021/11/28 09:00:49;;;;;;;3.47;3.17;;;3.90;52.60;;;;;;5052366;28;20227;-83
2021/11/28 09:03:15;;;;;;;4.20;3.03;;;4.00;54.20;;;;;;5052848;28;20172;-83
2021/11/28 09:05:41;;;;;;;3.13;2.83;;;4.10;53.50;;;;;;5053127;28;20172;-84
2021/11/28 09:08:07;;;;;;;3.30;2.83;;;4.10;52.30;;;;;;5053152;28;20172;-84
2021/11/28 09:10:32;;;;;;;4.10;3.07;;;4.10;51.60;;;;;;5048161;28;20443;-84
2021/11/28 09:12:58;;;;;;;6.67;4.80;;;4.10;51.70;;;;;;5067229;28;20517;-82
2021/11/28 09:15:25;;;;;;;4.50;2.93;;;4.10;52.30;;;;;;5052175;28;20437;-83
2021/11/28 09:18:00;;;;;;;4.10;3.70;;;4.00;52.70;;;;;;5052581;28;20771;-83
2021/11/28 09:20:28;;;;;;;3.57;3.27;;;4.10;53.00;;;;;;5052399;28;20450;-83
2021/11/28 09:25:28;;;;;;;3.33;2.80;;;4.10;52.30;;;;;;5052795;28;20414;-84
2021/11/28 09:27:56;;;;;;;3.10;2.90;;;4.10;52.30;;;;;;5033446;28;20480;-84
2021/11/28 09:30:24;;;;;;;3.70;3.27;;;4.10;52.40;;;;;;5027921;28;20436;-84
2021/11/28 09:32:50;;;;;;;5.33;3.20;;;4.10;51.10;;;;;;5017821;28;20442;-83
2021/11/28 09:35:16;;;;;;;3.57;3.27;;;4.10;51.60;;;;;;5032998;28;20561;-82
2021/11/28 09:37:44;;;;;;;2.70;2.50;;;4.10;52.30;;;;;;5033977;28;20451;-81
2021/11/28 09:40:11;;;;;;;10.37;3.87;;;4.20;51.40;;;;;;5034051;28;20247;-82
2021/11/28 09:42:39;;;;;;;7.13;3.43;;;4.10;52.00;;;;;;5029571;28;20435;-82
2021/11/28 09:45:07;;;;;;;3.30;3.00;;;4.10;52.30;;;;;;5028166;28;20419;-82
2021/11/28 09:47:35;;;;;;;3.70;3.40;;;4.10;53.10;;;;;;5031258;28;20465;-83
2021/11/28 09:50:04;;;;;;;4.23;3.43;;;4.10;53.90;;;;;;5030113;28;20831;-82
2021/11/28 09:52:31;;;;;;;3.57;3.27;;;3.90;54.00;;;;;;5030225;28;20537;-82
2021/11/28 09:54:59;;;;;;;3.57;3.33;;;4.00;54.20;;;;;;5032339;28;20408;-83
2021/11/28 09:57:25;;;;;;;5.00;3.30;;;4.10;53.70;;;;;;5031769;28;20443;-84
2021/11/28 09:59:52;;;;;;;4.00;3.60;;;4.10;53.90;;;;;;5031718;28;20458;-83
2021/11/28 10:02:22;;;;;;;4.00;3.70;;;4.10;54.30;;;;;;5032632;28;20562;-81
2021/11/28 10:04:49;;;;;;;3.87;3.57;;;4.20;54.30;;;;;;5030963;28;20408;-83
2021/11/28 10:07:16;;;;;;;3.63;3.20;;;4.20;53.50;;;;;;5031317;28;20418;-83
2021/11/28 10:09:42;;;;;;;3.63;3.33;;;4.20;52.80;;;;;;5031103;28;20990;-80
2021/11/28 10:12:26;;;;;;;3.20;3.00;;;4.10;53.30;;;;;;5030892;28;20412;-83
2021/11/28 10:14:53;;;;;;;5.07;3.47;;;4.20;53.00;;;;;;5031402;28;20978;-82
2021/11/28 10:17:23;;;;;;;3.70;3.40;;;4.30;53.30;;;;;;5031638;28;20415;-84
2021/11/28 10:19:49;;;;;;;4.27;3.87;;;4.30;52.90;;;;;;5030528;28;20494;-85
2021/11/28 10:22:15;;;;;;;3.53;3.23;;;4.40;52.50;;;;;;5031896;28;20462;-83
2021/11/28 10:24:54;;;;;;;5.43;3.20;;;4.40;53.10;;;;;;5032137;28;20268;-87
2021/11/28 10:27:30;;;;;;;4.00;3.60;;;4.40;51.70;;;;;;5032246;28;20415;-86
2021/11/28 10:29:55;;;;;;;4.03;3.37;;;4.40;52.50;;;;;;5032440;28;20438;-88
2021/11/28 10:32:23;;;;;;;3.00;2.70;;;4.30;52.00;;;;;;5032120;28;20431;-89
2021/11/28 10:34:49;;;;;;;3.73;2.90;;;4.30;52.00;;;;;;5033014;28;20219;-88
2021/11/28 10:37:20;;;;;;;3.83;3.43;;;4.40;51.40;;;;;;5032956;28;20442;-87
2021/11/28 10:39:49;;;;;;;2.50;2.40;;;4.40;51.70;;;;;;5035192;28;20504;-90
2021/11/28 10:42:18;;;;;;;3.10;2.80;;;4.50;50.80;;;;;;5032714;28;20423;-83
2021/11/28 10:45:14;;;;;;;3.13;2.80;;;4.50;50.90;;;;;;5031323;28;20514;-88
2021/11/28 10:47:52;;;;;;;3.20;2.67;;;4.50;50.80;;;;;;5033416;28;20423;-90
2021/11/28 10:50:23;;;;;;;3.17;2.80;;;4.50;51.20;;;;;;5033767;28;20407;-91
2021/11/28 10:53:02;;;;;;;3.80;2.30;;;4.40;50.90;;;;;;5033015;28;20426;-91
2021/11/28 10:55:33;;;;;;;2.33;2.00;;;4.40;51.50;;;;;;5033092;28;20211;-90
2021/11/28 10:58:19;;;;;;;2.00;1.80;;;4.40;51.60;;;;;;5033492;28;20435;-90
2021/11/28 11:00:48;;;;;;;2.87;2.67;;;4.40;51.10;;;;;;5030460;28;20459;-89
2021/11/28 11:03:22;;;;;;;2.47;2.27;;;4.40;51.50;;;;;;5032852;28;20489;-90
2021/11/28 11:05:51;;;;;;;3.57;2.33;;;4.50;51.30;;;;;;5033416;28;20858;-89
2021/11/28 11:08:28;;;;;;;2.60;1.90;;;4.50;50.70;;;;;;5033201;28;20415;-84
2021/11/28 11:11:08;;;;;;;2.83;2.50;;;4.40;50.80;;;;;;5031204;28;20450;-90
2021/11/28 11:13:50;;;;;;;3.83;3.27;;;4.40;51.20;;;;;;5029321;28;20754;-85
2021/11/28 11:16:31;;;;;;;5.20;2.03;;;4.50;51.90;;;;;;5034300;28;20414;-91
2021/11/28 11:19:32;;;;;;;2.97;2.40;;;4.40;50.70;;;;;;5032283;28;20757;-88
2021/11/28 11:22:27;;;;;;;2.23;2.07;;;4.40;51.10;;;;;;5030495;28;20450;-87
2021/11/28 11:25:02;;;;;;;4.20;2.43;;;4.40;51.00;;;;;;5029810;28;21089;-84
2021/11/28 11:27:33;;;;;;;5.20;2.07;;;4.40;50.90;;;;;;5031899;28;20422;-86
2021/11/28 11:30:10;;;;;;;3.77;2.50;;;4.40;50.80;;;;;;5032389;28;20463;-85
2021/11/28 11:32:39;;;;;;;1.90;1.80;;;4.40;50.80;;;;;;5030344;28;20446;-85
2021/11/28 11:35:09;;;;;;;3.13;2.53;;;4.40;50.50;;;;;;5030061;28;20419;-86
2021/11/28 11:37:35;;;;;;;3.73;3.10;;;4.30;50.80;;;;;;5030932;28;20810;-87
2021/11/28 11:40:05;;;;;;;3.10;2.60;;;4.40;52.00;;;;;;5032816;28;20451;-86
2021/11/28 11:42:31;;;;;;;2.30;2.20;;;4.50;51.80;;;;;;5033977;28;20969;-87
2021/11/28 11:44:57;;;;;;;2.53;2.00;;;4.50;50.50;;;;;;5033918;28;20498;-86
2021/11/28 11:47:23;;;;;;;1.67;1.57;;;4.50;49.40;;;;;;5033738;28;20201;-84
2021/11/28 11:49:50;;;;;;;2.37;2.00;;;4.30;47.70;;;;;;5034651;28;20461;-87
2021/11/28 11:52:17;;;;;;;2.00;1.33;;;4.30;49.00;;;;;;5034220;28;20530;-86
2021/11/28 11:54:46;;;;;;;2.03;1.63;;;4.40;48.80;;;;;;5034347;28;20421;-90
2021/11/28 11:57:35;;;;;;;1.93;1.83;;;4.40;48.10;;;;;;5035636;28;20418;-88
2021/11/28 12:00:07;;;;;;;1.80;1.30;;;4.40;48.60;;;;;;5014174;28;20467;-89
2021/11/28 12:02:42;;;;;;;7.10;2.07;;;4.50;47.90;;;;;;5036435;28;20809;-87
2021/11/28 12:05:26;;;;;;;1.67;1.57;;;4.50;48.10;;;;;;5037953;28;20418;-87
2021/11/28 12:07:52;;;;;;;2.90;1.70;;;4.50;48.70;;;;;;5043115;28;20416;-86
2021/11/28 12:10:32;;;;;;;2.80;2.47;;;4.50;49.10;;;;;;5040524;28;20476;-87
2021/11/28 12:13:01;;;;;;;2.10;1.50;;;4.50;49.60;;;;;;5034717;28;20423;-86
2021/11/28 12:15:35;;;;;;;1.40;1.30;;;4.50;48.60;;;;;;5034022;28;20427;-87
2021/11/28 12:18:01;;;;;;;1.80;1.70;;;4.50;47.40;;;;;;5034267;28;20411;-87
2021/11/28 12:20:51;;;;;;;2.00;1.80;;;4.50;47.80;;;;;;5035473;28;20827;-88
2021/11/28 12:23:42;;;;;;;2.63;2.30;;;4.50;49.30;;;;;;5036295;28;20919;-90
2021/11/28 12:26:36;;;;;;;3.80;3.50;;;4.50;49.40;;;;;;5017736;28;20422;-90
2021/11/28 12:29:14;;;;;;;3.10;2.90;;;4.50;49.40;;;;;;5036002;28;20438;-87
2021/11/28 12:32:08;;;;;;;2.77;2.57;;;4.50;49.30;;;;;;5034802;28;20489;-85
2021/11/28 12:34:49;;;;;;;2.73;2.53;;;4.40;49.50;;;;;;5034691;28;20477;-86
2021/11/28 12:37:27;;;;;;;3.67;2.80;;;4.40;49.00;;;;;;5034186;28;20419;-88
2021/11/28 12:39:56;;;;;;;4.00;3.70;;;4.40;48.90;;;;;;5031903;28;20993;-88
2021/11/28 12:42:28;;;;;;;3.23;2.97;;;4.50;49.30;;;;;;5034823;28;20411;-87
2021/11/28 12:44:53;;;;;;;4.10;3.80;;;4.40;49.10;;;;;;5033054;28;20411;-87
2021/11/28 12:47:23;;;;;;;3.40;2.87;;;4.50;49.70;;;;;;5035257;28;20403;-87
2021/11/28 12:50:05;;;;;;;4.20;3.90;;;4.50;49.00;;;;;;5029396;28;20263;-87
2021/11/28 12:52:51;;;;;;;7.23;6.27;;;4.50;50.80;;;;;;5031502;28;20981;-84
2021/11/28 12:55:30;;;;;;;6.27;5.67;;;4.50;50.90;;;;;;5017057;28;20425;-88
2021/11/28 12:57:59;;;;;;;6.03;5.43;;;4.40;50.80;;;;;;5034764;28;20441;-85
2021/11/28 13:00:29;;;;;;;6.83;6.27;;;4.40;51.50;;;;;;5032748;28;20536;-85
2021/11/28 13:02:59;;;;;;;5.77;5.30;;;4.40;51.50;;;;;;5032799;28;20831;-85
2021/11/28 13:05:38;;;;;;;5.37;4.87;;;4.50;51.50;;;;;;5033381;28;20465;-85
2021/11/28 13:08:04;;;;;;;3.97;3.67;;;4.40;50.40;;;;;;5032911;28;20415;-85
2021/11/28 13:10:50;;;;;;;3.93;3.63;;;4.30;50.10;;;;;;5032609;28;20429;-86
2021/11/28 13:13:19;;;;;;;6.17;4.60;;;4.30;50.60;;;;;;5032262;28;20637;-86